Time;durP1;ratioP1;P1;durP2;ratioP2;P2;SDS_P1;SDS_P2;PMS_P1;PMS_P2;Temp;Humidity;BMP_temperature;BMP_pressure;BME280_temperature;BME280_humidity;BME280_pressure;Samples;Min_cycle;Max_cycle;Signal;HPM_P1;HPM_P2
2022/10/01 00:01:53;;;;;;;;;;;;;;;10.52;100.00;100237.75;5015511;28;19917;-41
2022/10/01 00:04:18;;;;;;;;;;;;;;;10.51;100.00;100237.91;5016947;28;19929;-43
2022/10/01 00:06:43;;;;;;;;;;;;;;;10.50;100.00;100237.06;5016281;28;19917;-42
2022/10/01 00:09:08;;;;;;;;;;;;;;;10.53;100.00;100239.38;5016922;28;19917;-42
2022/10/01 00:11:34;;;;;;;;;;;;;;;10.51;100.00;100214.72;5016763;28;20440;-44
2022/10/01 00:14:00;;;;;;;;;;;;;;;10.49;100.00;100206.06;5014680;28;20403;-43
2022/10/01 00:16:26;;;;;;;;;;;;;;;10.49;100.00;100207.88;5016536;28;19964;-43
2022/10/01 00:18:54;;;;;;;;;;;;;;;10.51;100.00;100205.88;5016240;28;19948;-41
2022/10/01 00:21:21;;;;;;;;;;;;;;;10.52;100.00;100203.03;5016456;28;20466;-45
2022/10/01 00:23:46;;;;;;;;;;;;;;;10.53;100.00;100218.03;5017188;28;19979;-42
2022/10/01 00:26:17;;;;;;;;;;;;;;;10.61;100.00;100220.66;5015364;28;19921;-42
2022/10/01 00:28:44;;;;;;;;;;;;;;;10.60;100.00;100189.59;5015046;28;19917;-45
2022/10/01 00:31:09;;;;;;;;;;;;;;;10.64;100.00;100192.75;5015733;28;19921;-42
2022/10/01 00:33:35;;;;;;;;;;;;;;;10.66;100.00;100180.06;5016189;28;20284;-43
2022/10/01 00:36:00;;;;;;;;;;;;;;;10.68;100.00;100166.53;5015363;28;19920;-42
2022/10/01 00:38:28;;;;;;;;;;;;;;;10.65;100.00;100197.09;5014449;28;19932;-45
2022/10/01 00:40:53;;;;;;;;;;;;;;;10.62;100.00;100187.63;5015830;28;20244;-43
2022/10/01 00:43:22;;;;;;;;;;;;;;;10.51;100.00;100190.69;5014346;28;19917;-42
2022/10/01 00:45:47;;;;;;;;;;;;;;;10.52;100.00;100194.16;5016040;28;20047;-42
2022/10/01 00:48:13;;;;;;;;;;;;;;;10.43;100.00;100180.88;5014204;28;20003;-42
2022/10/01 00:50:39;;;;;;;;;;;;;;;10.39;100.00;100168.91;5015638;28;19921;-42
2022/10/01 00:53:07;;;;;;;;;;;;;;;10.41;100.00;100171.38;5015200;28;20023;-44
2022/10/01 00:55:36;;;;;;;;;;;;;;;10.36;100.00;100158.56;5016391;28;20410;-42
2022/10/01 00:58:06;;;;;;;;;;;;;;;10.39;100.00;100162.72;5014202;28;20032;-45
2022/10/01 01:00:31;;;;;;;;;;;;;;;10.38;100.00;100169.88;5016411;28;20083;-43
2022/10/01 01:02:56;;;;;;;;;;;;;;;10.36;100.00;100174.59;5014101;28;20007;-44
2022/10/01 01:05:21;;;;;;;;;;;;;;;10.26;100.00;100165.94;5015025;28;20067;-42
2022/10/01 01:07:48;;;;;;;;;;;;;;;10.14;100.00;100154.00;5013004;28;20391;-42
2022/10/01 01:10:15;;;;;;;;;;;;;;;10.04;100.00;100154.22;5007024;28;19917;-41
2022/10/01 01:12:59;;;;;;;;;;;;;;;9.99;100.00;100159.25;5010971;28;19916;-41
2022/10/01 01:15:51;;;;;;;;;;;;;;;9.93;100.00;100086.09;5015584;28;19929;-40
2022/10/01 01:18:31;;;;;;;;;;;;;;;9.86;100.00;100071.78;5014735;28;20312;-39
2022/10/01 01:21:05;;;;;;;;;;;;;;;9.85;100.00;100043.47;5014431;28;20156;-41
2022/10/01 01:23:45;;;;;;;;;;;;;;;9.87;100.00;100052.94;5014079;28;19920;-41
2022/10/01 01:26:15;;;;;;;;;;;;;;;9.88;100.00;100075.13;4999654;28;19925;-39
2022/10/01 01:28:47;;;;;;;;;;;;;;;9.85;100.00;100072.81;5022093;28;19917;-42
2022/10/01 01:31:15;;;;;;;;;;;;;;;9.90;100.00;100089.09;4999402;28;20446;-42
2022/10/01 01:33:42;;;;;;;;;;;;;;;9.91;100.00;100096.09;5000079;28;19962;-42
2022/10/01 01:36:15;;;;;;;;;;;;;;;9.94;100.00;100082.41;5001424;28;20447;-40
2022/10/01 01:38:53;;;;;;;;;;;;;;;9.93;100.00;100096.75;5008698;28;19936;-42
2022/10/01 01:41:20;;;;;;;;;;;;;;;9.93;100.00;100080.75;5010508;28;19925;-41
2022/10/01 01:43:48;;;;;;;;;;;;;;;9.93;100.00;100086.09;5015657;28;19913;-43
2022/10/01 01:46:17;;;;;;;;;;;;;;;9.96;100.00;100087.56;5019202;28;19924;-44
2022/10/01 01:48:47;;;;;;;;;;;;;;;10.01;100.00;100062.03;5020004;28;20538;-42
2022/10/01 01:51:16;;;;;;;;;;;;;;;9.99;100.00;100063.22;5018882;28;20013;-43
2022/10/01 01:53:42;;;;;;;;;;;;;;;9.97;100.00;100059.91;5018237;28;19924;-41
2022/10/01 01:56:07;;;;;;;;;;;;;;;9.99;100.00;100055.22;5018995;28;19925;-42
2022/10/01 01:58:33;;;;;;;;;;;;;;;9.99;100.00;100040.03;5017597;28;19921;-41
2022/10/01 02:00:58;;;;;;;;;;;;;;;10.02;100.00;100052.19;5018833;28;19976;-42
2022/10/01 02:03:28;;;;;;;;;;;;;;;9.99;100.00;100041.88;5019544;28;19931;-40
2022/10/01 02:05:53;;;;;;;;;;;;;;;9.98;100.00;100033.06;5019058;28;19937;-44
2022/10/01 02:08:28;;;;;;;;;;;;;;;9.99;100.00;100042.69;5018773;28;20280;-43
2022/10/01 02:11:12;;;;;;;;;;;;;;;9.98;100.00;100041.06;5016623;28;20520;-41
2022/10/01 02:13:45;;;;;;;;;;;;;;;9.98;100.00;100035.72;5009331;28;20004;-41
2022/10/01 02:16:13;;;;;;;;;;;;;;;9.96;100.00;100023.53;5018728;28;19974;-42
2022/10/01 02:18:49;;;;;;;;;;;;;;;9.94;100.00;100021.06;5019144;28;20359;-42
2022/10/01 02:21:14;;;;;;;;;;;;;;;9.93;100.00;100019.41;5005520;28;19913;-42
2022/10/01 02:23:42;;;;;;;;;;;;;;;9.91;100.00;100010.72;5018746;28;19928;-41
2022/10/01 02:26:11;;;;;;;;;;;;;;;9.95;100.00;100013.91;5017727;28;20050;-44
2022/10/01 02:28:38;;;;;;;;;;;;;;;9.96;100.00;100004.88;5009373;28;19921;-43
2022/10/01 02:31:03;;;;;;;;;;;;;;;9.94;100.00;100013.06;5019016;28;19923;-42
2022/10/01 02:33:30;;;;;;;;;;;;;;;10.00;100.00;100016.88;5018747;28;19921;-43
2022/10/01 02:35:57;;;;;;;;;;;;;;;9.97;100.00;100007.38;5017078;28;19913;-41
2022/10/01 02:38:23;;;;;;;;;;;;;;;9.95;100.00;99996.06;5018682;28;19925;-42
2022/10/01 02:40:51;;;;;;;;;;;;;;;9.99;100.00;99988.53;5018383;28;19917;-41
2022/10/01 02:43:18;;;;;;;;;;;;;;;9.97;100.00;99999.38;5016573;28;19924;-43
2022/10/01 02:45:46;;;;;;;;;;;;;;;9.99;100.00;99994.69;5018628;28;19944;-40
2022/10/01 02:48:11;;;;;;;;;;;;;;;10.02;100.00;99993.50;5017660;28;19924;-40
2022/10/01 02:50:43;;;;;;;;;;;;;;;10.04;100.00;99986.16;5019185;28;20234;-42
2022/10/01 02:53:12;;;;;;;;;;;;;;;10.06;100.00;100008.13;5017730;28;20380;-41
2022/10/01 02:55:39;;;;;;;;;;;;;;;10.06;100.00;99995.66;5017626;28;19983;-40
2022/10/01 02:58:04;;;;;;;;;;;;;;;10.05;100.00;99990.50;5016348;28;19928;-42
2022/10/01 03:00:30;;;;;;;;;;;;;;;10.09;100.00;99978.44;5018754;28;19920;-43
2022/10/01 03:02:55;;;;;;;;;;;;;;;10.11;100.00;100002.28;5017833;28;20397;-43
2022/10/01 03:05:20;;;;;;;;;;;;;;;10.15;100.00;99993.75;5018181;28;19960;-43
2022/10/01 03:07:46;;;;;;;;;;;;;;;10.17;100.00;99999.72;5018439;28;19923;-43
2022/10/01 03:10:11;;;;;;;;;;;;;;;10.18;100.00;99987.19;5017973;28;19917;-42
2022/10/01 03:12:39;;;;;;;;;;;;;;;10.20;100.00;99978.03;5015560;28;19957;-41
2022/10/01 03:15:05;;;;;;;;;;;;;;;10.22;100.00;99976.00;5009616;28;20012;-42
2022/10/01 03:17:31;;;;;;;;;;;;;;;10.20;100.00;99998.50;5009587;28;19932;-43
2022/10/01 03:19:56;;;;;;;;;;;;;;;10.24;100.00;99987.31;5016728;28;19921;-43
2022/10/01 03:22:22;;;;;;;;;;;;;;;10.22;100.00;99989.34;5017773;28;19913;-43
2022/10/01 03:24:51;;;;;;;;;;;;;;;10.20;100.00;99978.03;5018545;28;19913;-41
2022/10/01 03:27:16;;;;;;;;;;;;;;;10.23;100.00;99998.16;5015809;28;20017;-41
2022/10/01 03:29:42;;;;;;;;;;;;;;;10.25;100.00;99990.81;5018065;28;20349;-41
2022/10/01 03:32:08;;;;;;;;;;;;;;;10.25;100.00;99980.13;5016769;28;19948;-44
2022/10/01 03:34:33;;;;;;;;;;;;;;;10.22;100.00;99980.50;5017759;28;19924;-45
2022/10/01 03:36:58;;;;;;;;;;;;;;;10.29;100.00;99983.28;5016764;28;20131;-42
2022/10/01 03:39:23;;;;;;;;;;;;;;;10.27;100.00;99983.47;5018041;28;19963;-41
2022/10/01 03:41:48;;;;;;;;;;;;;;;10.30;100.00;99985.75;5015488;28;20291;-41
2022/10/01 03:44:14;;;;;;;;;;;;;;;10.36;100.00;99985.06;5016908;28;19924;-41
2022/10/01 03:46:39;;;;;;;;;;;;;;;10.32;100.00;99986.47;5017731;28;19925;-42
2022/10/01 03:49:04;;;;;;;;;;;;;;;10.35;100.00;99985.25;5017539;28;19921;-43
2022/10/01 03:51:30;;;;;;;;;;;;;;;10.41;100.00;99992.53;5016979;28;20175;-41
2022/10/01 03:53:55;;;;;;;;;;;;;;;10.44;100.00;100000.19;5016410;28;19917;-44
2022/10/01 03:56:21;;;;;;;;;;;;;;;10.44;100.00;99995.69;5015622;28;20394;-41
2022/10/01 03:58:46;;;;;;;;;;;;;;;10.45;100.00;100000.03;5015217;28;19973;-42
2022/10/01 04:01:11;;;;;;;;;;;;;;;10.47;100.00;99997.13;5016351;28;20263;-40
2022/10/01 04:03:36;;;;;;;;;;;;;;;10.51;100.00;99992.28;5016455;28;19921;-40
2022/10/01 04:06:01;;;;;;;;;;;;;;;10.57;100.00;99996.88;5016450;28;19975;-42
2022/10/01 04:08:27;;;;;;;;;;;;;;;10.60;100.00;99996.53;5014535;28;20327;-46
2022/10/01 04:10:52;;;;;;;;;;;;;;;10.64;100.00;99989.81;5016342;28;19935;-41
2022/10/01 04:13:17;;;;;;;;;;;;;;;10.67;100.00;99992.09;5004368;28;19913;-42
2022/10/01 04:15:43;;;;;;;;;;;;;;;10.70;100.00;99993.59;5015096;28;20012;-43
2022/10/01 04:18:08;;;;;;;;;;;;;;;10.73;100.00;99999.41;5013796;28;20008;-43
2022/10/01 04:20:34;;;;;;;;;;;;;;;10.78;100.00;99991.66;5016962;28;20098;-43
2022/10/01 04:23:00;;;;;;;;;;;;;;;10.81;100.00;100002.00;5017098;28;20376;-41
2022/10/01 04:25:25;;;;;;;;;;;;;;;10.80;100.00;99999.50;5016608;28;19986;-44
2022/10/01 04:27:57;;;;;;;;;;;;;;;10.88;100.00;99990.56;5013654;28;19913;-42
2022/10/01 04:30:23;;;;;;;;;;;;;;;10.88;100.00;100006.56;5017416;28;20016;-43
2022/10/01 04:32:49;;;;;;;;;;;;;;;10.83;100.00;99999.13;5016718;28;20004;-43
2022/10/01 04:35:14;;;;;;;;;;;;;;;10.87;100.00;100011.09;5013981;28;20300;-43
2022/10/01 04:37:40;;;;;;;;;;;;;;;10.88;100.00;100018.13;5015740;28;20012;-42
2022/10/01 04:40:05;;;;;;;;;;;;;;;10.90;100.00;100013.41;5016491;28;19921;-41
2022/10/01 04:42:30;;;;;;;;;;;;;;;10.93;100.00;100013.06;5014516;28;20354;-48
2022/10/01 04:44:56;;;;;;;;;;;;;;;11.03;100.00;100031.44;5016105;28;19913;-42
2022/10/01 04:47:21;;;;;;;;;;;;;;;11.03;100.00;100026.13;5016345;28;20048;-44
2022/10/01 04:49:46;;;;;;;;;;;;;;;11.06;100.00;100024.94;5016826;28;19919;-42
2022/10/01 04:52:12;;;;;;;;;;;;;;;11.10;100.00;100036.91;5016025;28;19917;-43
2022/10/01 04:54:37;;;;;;;;;;;;;;;11.15;100.00;100034.50;5016549;28;19936;-42
2022/10/01 04:57:02;;;;;;;;;;;;;;;11.21;100.00;100036.44;5013747;28;19960;-42
2022/10/01 04:59:27;;;;;;;;;;;;;;;11.23;100.00;100026.38;5014800;28;20384;-42
2022/10/01 05:01:52;;;;;;;;;;;;;;;11.23;100.00;100031.72;5015408;28;19917;-44
2022/10/01 05:04:18;;;;;;;;;;;;;;;11.24;100.00;100048.63;5016166;28;20407;-43
2022/10/01 05:06:43;;;;;;;;;;;;;;;11.26;100.00;100044.72;5016588;28;19913;-42
2022/10/01 05:09:08;;;;;;;;;;;;;;;11.30;100.00;100053.22;5015707;28;20376;-43
2022/10/01 05:11:33;;;;;;;;;;;;;;;11.32;100.00;100048.50;5014734;28;19967;-41
2022/10/01 05:13:58;;;;;;;;;;;;;;;11.33;100.00;100056.34;5015229;28;19982;-42
2022/10/01 05:16:24;;;;;;;;;;;;;;;11.40;100.00;100064.44;5014894;28;19972;-42
2022/10/01 05:18:49;;;;;;;;;;;;;;;11.43;100.00;100061.41;5018791;28;19924;-42
2022/10/01 05:21:14;;;;;;;;;;;;;;;11.43;100.00;100057.91;5018632;28;19999;-41
2022/10/01 05:23:40;;;;;;;;;;;;;;;11.45;100.00;100063.91;5020266;28;19948;-44
2022/10/01 05:26:06;;;;;;;;;;;;;;;11.46;100.00;100062.88;5018595;28;20518;-43
2022/10/01 05:28:31;;;;;;;;;;;;;;;11.48;100.00;100075.03;5018844;28;19921;-45
2022/10/01 05:31:02;;;;;;;;;;;;;;;11.51;100.00;100082.69;5019167;28;19925;-43
2022/10/01 05:33:28;;;;;;;;;;;;;;;11.54;100.00;100076.13;5019212;28;20850;-42
2022/10/01 05:35:54;;;;;;;;;;;;;;;11.57;100.00;100079.28;5019256;28;19996;-42
2022/10/01 05:38:19;;;;;;;;;;;;;;;11.58;100.00;100083.59;5020164;28;19917;-42
2022/10/01 05:40:45;;;;;;;;;;;;;;;11.60;100.00;100091.44;5019345;28;19917;-44
2022/10/01 05:43:11;;;;;;;;;;;;;;;11.62;100.00;100097.44;5016710;28;19936;-45
2022/10/01 05:45:36;;;;;;;;;;;;;;;11.63;100.00;100095.59;5016577;28;19928;-42
2022/10/01 05:48:03;;;;;;;;;;;;;;;11.64;100.00;100095.41;5007187;28;19967;-44
2022/10/01 05:50:31;;;;;;;;;;;;;;;11.69;100.00;100102.88;5019605;28;20334;-43
2022/10/01 05:52:58;;;;;;;;;;;;;;;11.69;100.00;100103.72;5018714;28;19979;-43
2022/10/01 05:55:23;;;;;;;;;;;;;;;11.69;100.00;100102.88;5019545;28;20144;-42
2022/10/01 05:57:52;;;;;;;;;;;;;;;11.74;100.00;100111.16;5015805;28;20561;-42
2022/10/01 06:00:17;;;;;;;;;;;;;;;11.74;100.00;100120.03;5019660;28;20184;-42
2022/10/01 06:02:42;;;;;;;;;;;;;;;11.77;100.00;100105.44;5019608;28;19975;-45
2022/10/01 06:05:08;;;;;;;;;;;;;;;11.76;100.00;100109.13;5018189;28;20008;-43
2022/10/01 06:07:33;;;;;;;;;;;;;;;11.75;100.00;100110.97;5019777;28;20399;-41
2022/10/01 06:09:58;;;;;;;;;;;;;;;11.73;100.00;100113.00;5018826;28;19920;-45
2022/10/01 06:12:24;;;;;;;;;;;;;;;11.76;100.00;100118.00;5017031;28;19971;-43
2022/10/01 06:14:49;;;;;;;;;;;;;;;11.81;100.00;100125.44;5019781;28;20407;-42
2022/10/01 06:17:14;;;;;;;;;;;;;;;11.82;100.00;100129.78;5018257;28;19956;-43
2022/10/01 06:19:39;;;;;;;;;;;;;;;11.86;100.00;100133.75;5019142;28;19929;-43
2022/10/01 06:22:04;;;;;;;;;;;;;;;11.88;100.00;100139.75;5017488;28;19995;-42
2022/10/01 06:24:30;;;;;;;;;;;;;;;11.94;100.00;100140.88;5019544;28;19917;-43
2022/10/01 06:26:56;;;;;;;;;;;;;;;11.98;100.00;100141.31;5016579;28;19927;-44
2022/10/01 06:29:21;;;;;;;;;;;;;;;12.02;100.00;100139.94;5018462;28;19913;-43
2022/10/01 06:31:46;;;;;;;;;;;;;;;12.08;100.00;100140.03;5018719;28;19943;-42
2022/10/01 06:34:11;;;;;;;;;;;;;;;12.15;100.00;100139.25;5018300;28;19924;-44
2022/10/01 06:36:36;;;;;;;;;;;;;;;12.22;100.00;100132.97;5014887;28;20348;-41
2022/10/01 06:39:01;;;;;;;;;;;;;;;12.26;100.00;100142.28;5017664;28;20117;-44
2022/10/01 06:41:27;;;;;;;;;;;;;;;12.26;100.00;100139.59;5016966;28;20383;-45
2022/10/01 06:43:52;;;;;;;;;;;;;;;12.26;100.00;100136.09;5019368;28;19974;-43
2022/10/01 06:46:17;;;;;;;;;;;;;;;12.27;100.00;100137.72;5029632;28;19959;-42
2022/10/01 06:48:42;;;;;;;;;;;;;;;12.31;100.00;100145.22;5018533;28;20395;-46
2022/10/01 06:51:08;;;;;;;;;;;;;;;12.39;100.00;100148.78;5018859;28;19978;-46
2022/10/01 06:53:33;;;;;;;;;;;;;;;12.42;100.00;100159.97;5025653;28;19920;-43
2022/10/01 06:56:05;;;;;;;;;;;;;;;12.48;100.00;100161.03;5017123;28;20005;-42
2022/10/01 06:58:30;;;;;;;;;;;;;;;12.49;100.00;100166.22;5017566;28;19993;-41
2022/10/01 07:01:00;;;;;;;;;;;;;;;12.50;100.00;100161.66;5018331;28;20242;-42
2022/10/01 07:03:25;;;;;;;;;;;;;;;12.50;100.00;100173.22;5023660;28;20035;-43
2022/10/01 07:05:50;;;;;;;;;;;;;;;12.50;100.00;100169.72;5017470;28;20080;-42
2022/10/01 07:08:16;;;;;;;;;;;;;;;12.50;100.00;100172.38;5030273;28;19928;-41
2022/10/01 07:10:42;;;;;;;;;;;;;;;12.52;100.00;100181.06;5007863;28;20041;-43
2022/10/01 07:13:09;;;;;;;;;;;;;;;12.59;100.00;100187.34;5014497;28;19917;-45
2022/10/01 07:15:34;;;;;;;;;;;;;;;12.57;100.00;100178.63;5013116;28;19971;-43
2022/10/01 07:18:00;;;;;;;;;;;;;;;12.65;100.00;100180.38;5017117;28;19913;-42
2022/10/01 07:20:25;;;;;;;;;;;;;;;12.75;100.00;100180.06;5008509;28;19925;-43
2022/10/01 07:22:56;;;;;;;;;;;;;;;12.93;100.00;100185.78;5014766;28;20059;-44
2022/10/01 07:25:21;;;;;;;;;;;;;;;13.09;100.00;100192.72;5009956;28;19918;-43
2022/10/01 07:27:46;;;;;;;;;;;;;;;13.27;100.00;100196.78;4997989;28;19963;-41
2022/10/01 07:30:11;;;;;;;;;;;;;;;13.42;100.00;100198.38;5024899;28;19917;-40
2022/10/01 07:32:36;;;;;;;;;;;;;;;13.50;100.00;100200.06;5008509;28;19913;-43
2022/10/01 07:35:02;;;;;;;;;;;;;;;13.41;100.00;100191.34;5007033;28;20435;-42
2022/10/01 07:37:27;;;;;;;;;;;;;;;13.38;100.00;100207.81;4998248;28;20301;-42
2022/10/01 07:39:53;;;;;;;;;;;;;;;13.29;100.00;100214.34;4997678;28;20385;-42
2022/10/01 07:42:18;;;;;;;;;;;;;;;13.19;100.00;100216.53;4994494;28;19948;-41
2022/10/01 07:44:43;;;;;;;;;;;;;;;13.07;100.00;100210.88;5007582;28;19917;-44
2022/10/01 07:47:08;;;;;;;;;;;;;;;12.95;100.00;100215.06;5002225;28;19925;-44
2022/10/01 07:49:34;;;;;;;;;;;;;;;12.83;100.00;100210.22;4998465;28;19963;-41
2022/10/01 07:51:59;;;;;;;;;;;;;;;12.80;100.00;100229.38;4997102;28;20064;-42
2022/10/01 07:54:24;;;;;;;;;;;;;;;12.77;100.00;100235.09;5011777;28;19921;-42
2022/10/01 07:56:54;;;;;;;;;;;;;;;12.73;100.00;100233.84;5008653;28;19928;-42
2022/10/01 07:59:19;;;;;;;;;;;;;;;12.71;100.00;100232.34;4997558;28;19922;-42
2022/10/01 08:01:48;;;;;;;;;;;;;;;12.68;100.00;100234.41;4997183;28;20765;-42
2022/10/01 08:06:57;;;;;;;;;;;;;;;12.77;100.00;100245.00;4997291;28;19956;-43
2022/10/01 08:09:23;;;;;;;;;;;;;;;12.83;100.00;100257.63;4999512;28;20372;-41
2022/10/01 08:11:48;;;;;;;;;;;;;;;12.94;100.00;100253.63;5017150;28;20028;-42
2022/10/01 08:14:15;;;;;;;;;;;;;;;13.05;100.00;100262.00;5017153;28;19967;-42
2022/10/01 08:16:40;;;;;;;;;;;;;;;13.12;100.00;100269.25;5015437;28;20326;-42
2022/10/01 08:19:07;;;;;;;;;;;;;;;13.15;100.00;100285.81;5017236;28;20016;-41
2022/10/01 08:21:34;;;;;;;;;;;;;;;13.15;100.00;100287.63;5014967;28;20147;-43
2022/10/01 08:23:59;;;;;;;;;;;;;;;13.14;100.00;100291.34;5016479;28;19971;-42
2022/10/01 08:26:24;;;;;;;;;;;;;;;13.11;100.00;100284.50;5015018;28;20349;-45
2022/10/01 08:28:50;;;;;;;;;;;;;;;13.12;100.00;100293.38;5015618;28;20237;-44
2022/10/01 08:31:15;;;;;;;;;;;;;;;13.14;100.00;100292.19;5016365;28;20367;-45
2022/10/01 08:33:40;;;;;;;;;;;;;;;13.20;100.00;100298.63;5016181;28;20378;-44
2022/10/01 08:36:08;;;;;;;;;;;;;;;13.28;100.00;100293.13;5016322;28;19983;-44
2022/10/01 08:38:34;;;;;;;;;;;;;;;13.34;100.00;100299.59;5016514;28;20470;-45
2022/10/01 08:41:05;;;;;;;;;;;;;;;13.34;100.00;100297.75;5014869;28;19925;-41
2022/10/01 08:43:33;;;;;;;;;;;;;;;13.35;100.00;100294.03;5015962;28;19917;-39
2022/10/01 08:46:03;;;;;;;;;;;;;;;13.35;100.00;100299.41;5015561;28;20361;-43
2022/10/01 08:48:43;;;;;;;;;;;;;;;13.56;100.00;100301.25;5016232;28;19996;-43
2022/10/01 08:51:18;;;;;;;;;;;;;;;13.89;100.00;100294.47;5015147;28;20415;-42
2022/10/01 08:53:43;;;;;;;;;;;;;;;14.16;100.00;100292.75;5016279;28;19917;-43
2022/10/01 08:56:28;;;;;;;;;;;;;;;14.25;100.00;100290.75;5014902;28;20002;-42
2022/10/01 08:58:57;;;;;;;;;;;;;;;14.22;100.00;100300.00;5014131;28;20034;-42
2022/10/01 09:01:23;;;;;;;;;;;;;;;14.11;100.00;100306.78;5015445;28;20283;-42
2022/10/01 09:03:49;;;;;;;;;;;;;;;14.14;100.00;100308.25;5014938;28;19917;-40
2022/10/01 09:06:14;;;;;;;;;;;;;;;14.20;100.00;100309.31;5014454;28;19921;-41
2022/10/01 09:08:51;;;;;;;;;;;;;;;14.35;100.00;100304.63;5016440;28;20165;-44
2022/10/01 09:11:24;;;;;;;;;;;;;;;14.61;100.00;100317.38;5013500;28;19913;-42
2022/10/01 09:13:50;;;;;;;;;;;;;;;14.90;100.00;100321.63;5012218;28;19914;-42
2022/10/01 09:16:15;;;;;;;;;;;;;;;15.14;100.00;100324.81;5015636;28;20011;-42
2022/10/01 09:18:49;;;;;;;;;;;;;;;15.24;100.00;100324.38;5015653;28;20221;-43
2022/10/01 09:21:37;;;;;;;;;;;;;;;15.30;100.00;100327.09;5015556;28;19917;-41
2022/10/01 09:24:07;;;;;;;;;;;;;;;15.38;100.00;100338.72;5013754;28;20353;-44
2022/10/01 09:26:35;;;;;;;;;;;;;;;15.35;100.00;100333.72;5015380;28;20197;-45
2022/10/01 09:29:01;;;;;;;;;;;;;;;15.23;100.00;100345.06;5015553;28;19932;-48
2022/10/01 09:31:32;;;;;;;;;;;;;;;15.23;100.00;100341.56;5015848;28;20383;-42
2022/10/01 09:34:03;;;;;;;;;;;;;;;15.11;100.00;100347.53;5013593;28;19956;-42
2022/10/01 09:36:38;;;;;;;;;;;;;;;15.23;100.00;100345.06;5015664;28;20403;-42
2022/10/01 09:39:03;;;;;;;;;;;;;;;15.45;100.00;100343.03;5014310;28;20287;-43
2022/10/01 09:41:30;;;;;;;;;;;;;;;15.66;100.00;100339.34;5013781;28;19921;-43
2022/10/01 09:43:55;;;;;;;;;;;;;;;15.82;100.00;100342.69;5014156;28;19928;-43
2022/10/01 09:46:20;;;;;;;;;;;;;;;15.89;100.00;100350.75;5014277;28;19917;-42
2022/10/01 09:48:58;;;;;;;;;;;;;;;15.87;100.00;100340.19;5016213;28;19912;-44
2022/10/01 09:51:32;;;;;;;;;;;;;;;15.87;100.00;100359.03;5014944;28;19956;-45
2022/10/01 09:54:11;;;;;;;;;;;;;;;16.08;100.00;100360.66;5015152;28;19920;-44
2022/10/01 09:56:42;;;;;;;;;;;;;;;16.06;100.00;100356.53;5013013;28;19921;-44
2022/10/01 09:59:13;;;;;;;;;;;;;;;16.04;100.00;100356.75;5015779;28;19975;-45
2022/10/01 10:01:43;;;;;;;;;;;;;;;15.90;100.00;100357.78;5015596;28;19924;-42
2022/10/01 10:04:09;;;;;;;;;;;;;;;15.61;100.00;100365.22;5015509;28;20552;-42
2022/10/01 10:06:34;;;;;;;;;;;;;;;15.45;100.00;100359.19;5018570;28;19967;-43
2022/10/01 10:09:00;;;;;;;;;;;;;;;15.37;100.00;100378.22;5018517;28;20068;-43
2022/10/01 10:11:27;;;;;;;;;;;;;;;15.27;100.00;100370.56;5017663;28;19913;-44
2022/10/01 10:14:02;;;;;;;;;;;;;;;15.25;100.00;100386.06;5017864;28;19917;-44
2022/10/01 10:16:27;;;;;;;;;;;;;;;15.35;100.00;100384.84;5019513;28;19913;-44
2022/10/01 10:18:55;;;;;;;;;;;;;;;15.28;100.00;100382.13;5018160;28;19924;-47
2022/10/01 10:21:22;;;;;;;;;;;;;;;15.25;100.00;100379.84;5018316;28;19931;-41
2022/10/01 10:23:49;;;;;;;;;;;;;;;15.45;100.00;100394.19;5019437;28;20341;-40
2022/10/01 10:26:19;;;;;;;;;;;;;;;15.79;100.00;100395.06;5017502;28;20346;-42
2022/10/01 10:28:45;;;;;;;;;;;;;;;16.01;100.00;100401.06;5017370;28;20560;-42
2022/10/01 10:31:19;;;;;;;;;;;;;;;16.22;100.00;100415.34;5016865;28;20420;-44
2022/10/01 10:33:46;;;;;;;;;;;;;;;16.62;100.00;100418.00;5018405;28;19992;-43
2022/10/01 10:36:13;;;;;;;;;;;;;;;16.96;100.00;100416.88;5018225;28;20364;-42
2022/10/01 10:38:38;;;;;;;;;;;;;;;17.17;100.00;100428.41;5018155;28;20548;-45
2022/10/01 10:41:05;;;;;;;;;;;;;;;17.18;100.00;100431.94;5017752;28;19943;-43
2022/10/01 10:43:33;;;;;;;;;;;;;;;17.23;100.00;100430.25;5017818;28;20667;-45
2022/10/01 10:45:59;;;;;;;;;;;;;;;17.22;100.00;100438.56;5018138;28;20053;-49
2022/10/01 10:48:28;;;;;;;;;;;;;;;17.27;100.00;100436.84;5005919;28;20380;-42
2022/10/01 10:51:00;;;;;;;;;;;;;;;17.29;100.00;100442.88;5018083;28;20144;-42
2022/10/01 10:53:27;;;;;;;;;;;;;;;17.27;100.00;100457.63;5018309;28;20598;-43
2022/10/01 10:55:59;;;;;;;;;;;;;;;17.10;100.00;100455.41;5017019;28;19913;-44
2022/10/01 10:58:26;;;;;;;;;;;;;;;16.69;100.00;100466.50;5017224;28;20303;-44
2022/10/01 11:00:53;;;;;;;;;;;;;;;16.45;100.00;100465.31;5017868;28;19979;-43
2022/10/01 11:03:24;;;;;;;;;;;;;;;16.26;100.00;100467.81;5014870;28;19974;-44
2022/10/01 11:05:50;;;;;;;;;;;;;;;16.24;100.00;100483.34;5017557;28;19921;-42
2022/10/01 11:08:21;;;;;;;;;;;;;;;16.35;100.00;100484.59;5017671;28;19913;-42
2022/10/01 11:10:46;;;;;;;;;;;;;;;16.51;100.00;100478.75;5017085;28;20324;-42
2022/10/01 11:13:17;;;;;;;;;;;;;;;16.64;100.00;100486.00;5014928;28;20095;-42
2022/10/01 11:16:01;;;;;;;;;;;;;;;16.34;100.00;100496.41;5014251;28;19913;-42
2022/10/01 11:18:35;;;;;;;;;;;;;;;16.10;100.00;100484.38;5017893;28;19913;-44
2022/10/01 11:21:10;;;;;;;;;;;;;;;16.27;100.00;100495.59;5017728;28;19925;-42
2022/10/01 11:23:44;;;;;;;;;;;;;;;16.56;100.00;100492.47;5017045;28;20015;-39
2022/10/01 11:26:16;;;;;;;;;;;;;;;16.82;100.00;100501.53;5016202;28;19921;-44
2022/10/01 11:28:43;;;;;;;;;;;;;;;17.12;100.00;100499.22;5017406;28;20020;-42
2022/10/01 11:31:21;;;;;;;;;;;;;;;17.38;100.00;100504.69;5017300;28;19917;-41
2022/10/01 11:34:06;;;;;;;;;;;;;;;17.60;100.00;100510.63;5016423;28;19917;-41
2022/10/01 11:36:42;;;;;;;;;;;;;;;17.43;100.00;100511.13;5000631;28;20137;-43
2022/10/01 11:39:14;;;;;;;;;;;;;;;16.94;100.00;100526.84;5011324;28;20275;-41
2022/10/01 11:41:42;;;;;;;;;;;;;;;16.62;100.00;100519.63;5015183;28;19983;-42
2022/10/01 11:44:13;;;;;;;;;;;;;;;16.53;100.00;100527.94;5016625;28;19921;-44
2022/10/01 11:46:48;;;;;;;;;;;;;;;16.56;100.00;100529.38;5016936;28;19970;-45
2022/10/01 11:49:16;;;;;;;;;;;;;;;17.01;100.00;100523.31;5017016;28;19991;-41
2022/10/01 11:51:45;;;;;;;;;;;;;;;17.48;100.00;100526.66;5017411;28;19913;-42
2022/10/01 11:54:13;;;;;;;;;;;;;;;17.76;100.00;100526.31;5015749;28;19917;-41
2022/10/01 11:59:33;;;;;;;;;;;;;;;17.98;97.50;100531.44;5018168;28;19940;-42
2022/10/01 12:02:07;;;;;;;;;;;;;;;18.16;96.21;100542.34;5016491;28;20277;-42
2022/10/01 12:04:39;;;;;;;;;;;;;;;18.44;95.61;100546.47;5017460;28;20505;-40
2022/10/01 12:07:10;;;;;;;;;;;;;;;18.15;95.77;100547.94;5015378;28;20462;-41
2022/10/01 12:09:38;;;;;;;;;;;;;;;18.06;99.75;100545.50;5017651;28;20055;-43
2022/10/01 12:12:07;;;;;;;;;;;;;;;17.97;97.62;100546.78;5014138;28;20448;-48
2022/10/01 12:14:44;;;;;;;;;;;;;;;18.06;99.48;100561.72;5016276;28;20299;-41
2022/10/01 12:17:18;;;;;;;;;;;;;;;18.05;97.27;100554.66;5015917;28;19940;-43
2022/10/01 12:19:47;;;;;;;;;;;;;;;18.11;98.18;100561.06;5016982;28;20020;-41
2022/10/01 12:22:30;;;;;;;;;;;;;;;17.78;95.16;100564.75;5016255;28;20422;-42
2022/10/01 12:24:55;;;;;;;;;;;;;;;17.49;97.36;100568.84;5015509;28;19964;-42
2022/10/01 12:27:32;;;;;;;;;;;;;;;17.20;91.42;100580.97;5012654;28;20014;-41
2022/10/01 12:30:02;;;;;;;;;;;;;;;17.05;91.31;100581.22;5016872;28;19913;-44
2022/10/01 12:32:35;;;;;;;;;;;;;;;17.12;89.92;100580.16;5015980;28;19952;-41
2022/10/01 12:35:07;;;;;;;;;;;;;;;17.47;85.67;100593.34;5016379;28;20391;-41
2022/10/01 12:37:52;;;;;;;;;;;;;;;17.32;86.43;100598.16;5016592;28;19914;-44
2022/10/01 12:40:25;;;;;;;;;;;;;;;17.24;86.53;100610.00;5015070;28;20228;-47